Time;durP1;ratioP1;P1;durP2;ratioP2;P2;SDS_P1;SDS_P2;PMS_P1;PMS_P2;Temp;Humidity;BMP_temperature;BMP_pressure;BME280_temperature;BME280_humidity;BME280_pressure;Samples;Min_cycle;Max_cycle;Signal;HPM_P1;HPM_P2
2023/12/24 00:02:05;;;;;;;3.28;0.98;;;9.10;99.90;;;;;;5022940;28;20048;-74
2023/12/24 00:04:30;;;;;;;0.88;0.35;;;9.10;99.90;;;;;;4995240;28;20045;-75
2023/12/24 00:06:56;;;;;;;0.85;0.43;;;9.10;99.90;;;;;;5011550;28;20041;-75
2023/12/24 00:09:22;;;;;;;4.93;0.68;;;9.10;99.90;;;;;;5029277;28;20068;-74
2023/12/24 00:11:47;;;;;;;0.30;0.30;;;9.10;99.90;;;;;;4992249;28;20480;-74
2023/12/24 00:14:13;;;;;;;5.35;0.90;;;9.10;99.90;;;;;;5013979;28;20059;-74
2023/12/24 00:16:41;;;;;;;0.40;0.25;;;9.10;99.90;;;;;;4999381;28;20128;-74
2023/12/24 00:19:06;;;;;;;7.30;0.77;;;9.10;99.90;;;;;;5011689;28;20056;-74
2023/12/24 00:21:33;;;;;;;11.02;1.05;;;9.10;99.90;;;;;;5007071;28;20049;-75
2023/12/24 00:23:59;;;;;;;0.80;0.30;;;9.00;99.90;;;;;;5007342;28;20051;-74
2023/12/24 00:26:25;;;;;;;0.70;0.40;;;9.10;99.90;;;;;;4998367;28;20046;-74
2023/12/24 00:28:51;;;;;;;7.82;1.10;;;9.00;99.90;;;;;;5003104;28;20327;-74
2023/12/24 00:31:17;;;;;;;4.70;0.93;;;9.00;99.90;;;;;;5011984;28;20328;-74
2023/12/24 00:33:43;;;;;;;2.55;0.65;;;9.10;99.90;;;;;;5016281;28;20037;-74
2023/12/24 00:36:09;;;;;;;6.30;0.68;;;9.10;99.90;;;;;;4992338;28;20045;-73
2023/12/24 00:38:34;;;;;;;3.83;0.75;;;9.10;99.90;;;;;;5013109;28;20076;-74
2023/12/24 00:41:00;;;;;;;4.57;0.77;;;9.00;99.90;;;;;;4995328;28;20049;-74
2023/12/24 00:43:26;;;;;;;12.20;1.73;;;9.00;99.90;;;;;;5009136;28;20489;-74
2023/12/24 00:45:51;;;;;;;7.22;0.73;;;9.10;99.90;;;;;;5023117;28;20091;-74
2023/12/24 00:48:17;;;;;;;4.63;0.85;;;9.10;99.90;;;;;;5000229;28;20419;-74
2023/12/24 00:50:43;;;;;;;5.13;1.02;;;9.10;99.90;;;;;;4994694;28;20053;-73
2023/12/24 00:53:10;;;;;;;23.42;1.73;;;9.10;99.90;;;;;;5009952;28;20412;-74
2023/12/24 00:55:35;;;;;;;2.42;0.95;;;9.10;99.90;;;;;;4998168;28;20060;-74
2023/12/24 00:58:01;;;;;;;2.70;0.65;;;9.10;99.90;;;;;;5018126;28;20040;-73
2023/12/24 01:00:27;;;;;;;3.72;1.00;;;9.20;99.90;;;;;;5005323;28;20045;-74
2023/12/24 01:02:53;;;;;;;1.90;0.28;;;9.20;99.90;;;;;;5004002;28;20141;-74
2023/12/24 01:05:19;;;;;;;3.88;1.13;;;9.10;99.90;;;;;;5033181;28;20081;-74
2023/12/24 01:07:44;;;;;;;4.53;0.52;;;9.20;99.90;;;;;;5008546;28;20033;-74
2023/12/24 01:10:11;;;;;;;0.20;0.20;;;9.10;99.90;;;;;;5017614;28;20076;-74
2023/12/24 01:12:37;;;;;;;0.43;0.32;;;9.10;99.90;;;;;;5022034;28;20052;-74
2023/12/24 01:15:04;;;;;;;1.80;0.52;;;9.10;99.90;;;;;;4996568;28;20099;-75
2023/12/24 01:17:29;;;;;;;5.35;1.52;;;9.10;99.90;;;;;;5020201;28;20140;-74
2023/12/24 01:19:57;;;;;;;1.67;0.38;;;9.10;99.90;;;;;;4989816;28;20195;-75
2023/12/24 01:22:23;;;;;;;6.55;1.27;;;9.10;99.90;;;;;;5000637;28;20041;-75
2023/12/24 01:24:48;;;;;;;15.93;1.50;;;9.10;99.90;;;;;;5022569;28;20047;-75
2023/12/24 01:27:15;;;;;;;6.95;1.02;;;9.10;99.90;;;;;;4991428;28;20156;-75
2023/12/24 01:29:41;;;;;;;2.35;0.80;;;9.10;99.90;;;;;;4993947;28;20049;-75
2023/12/24 01:32:07;;;;;;;2.38;0.80;;;9.10;99.90;;;;;;5003775;28;20107;-75
2023/12/24 01:34:32;;;;;;;1.40;0.47;;;9.10;99.90;;;;;;5019504;28;20448;-75
2023/12/24 01:36:58;;;;;;;6.13;1.02;;;9.00;99.90;;;;;;5007797;28;20124;-75
2023/12/24 01:39:25;;;;;;;8.50;1.20;;;9.10;99.90;;;;;;5003774;28;20091;-75
2023/12/24 01:41:50;;;;;;;3.10;0.90;;;9.10;99.90;;;;;;5003556;28;20080;-75
2023/12/24 01:44:16;;;;;;;6.07;1.33;;;9.00;99.90;;;;;;5019885;28;20500;-75
2023/12/24 01:46:43;;;;;;;6.00;0.85;;;9.10;99.90;;;;;;5019309;28;20053;-75
2023/12/24 01:49:12;;;;;;;11.23;1.52;;;9.00;99.90;;;;;;5020516;28;20105;-75
2023/12/24 01:51:38;;;;;;;7.82;1.08;;;9.10;99.90;;;;;;5001692;28;20138;-75
2023/12/24 01:54:03;;;;;;;3.33;1.02;;;9.00;99.90;;;;;;5020246;28;20251;-75
2023/12/24 01:56:30;;;;;;;6.45;1.05;;;9.10;99.90;;;;;;4997194;28;20038;-75
2023/12/24 01:58:57;;;;;;;10.85;1.27;;;9.10;99.90;;;;;;5003876;28;20745;-75
2023/12/24 02:01:23;;;;;;;4.35;1.17;;;9.10;99.90;;;;;;5018443;28;20045;-74
2023/12/24 02:03:49;;;;;;;1.90;0.55;;;9.00;99.90;;;;;;5019941;28;20037;-75
2023/12/24 02:06:17;;;;;;;1.38;0.35;;;9.10;99.90;;;;;;5018307;28;20068;-74
2023/12/24 02:08:44;;;;;;;8.18;1.13;;;9.10;99.90;;;;;;5015150;28;20088;-74
2023/12/24 02:11:10;;;;;;;7.28;0.77;;;9.10;99.90;;;;;;5009301;28;20053;-75
2023/12/24 02:13:35;;;;;;;4.50;0.73;;;9.10;99.90;;;;;;4999407;28;20061;-75
2023/12/24 02:16:03;;;;;;;1.85;0.45;;;9.00;99.90;;;;;;4997383;28;20141;-74
2023/12/24 02:18:29;;;;;;;3.20;0.70;;;9.10;99.90;;;;;;5004883;28;20149;-74
2023/12/24 02:21:07;;;;;;;3.75;0.60;;;9.10;99.90;;;;;;5002472;28;20563;-75
2023/12/24 02:23:33;;;;;;;3.50;1.02;;;9.10;99.90;;;;;;5013410;28;20092;-75
2023/12/24 02:26:11;;;;;;;3.33;0.70;;;9.10;99.90;;;;;;4998456;28;20041;-74
2023/12/24 02:28:44;;;;;;;8.15;0.80;;;9.10;99.90;;;;;;5007147;28;20051;-74
2023/12/24 02:31:11;;;;;;;6.60;0.75;;;9.10;99.90;;;;;;5019660;28;20069;-75
2023/12/24 02:33:41;;;;;;;2.90;0.60;;;9.10;99.90;;;;;;5005557;28;20053;-74
2023/12/24 02:36:09;;;;;;;7.45;0.68;;;9.10;99.90;;;;;;4999477;28;20041;-74
2023/12/24 02:38:35;;;;;;;0.35;0.15;;;9.10;99.90;;;;;;5003911;28;20124;-74
2023/12/24 02:41:01;;;;;;;5.75;0.70;;;9.00;99.90;;;;;;5014022;28;20077;-74
2023/12/24 02:43:27;;;;;;;0.38;0.20;;;9.10;99.90;;;;;;5013592;28;20092;-73
2023/12/24 02:45:52;;;;;;;5.57;0.32;;;9.10;99.90;;;;;;5020730;28;20045;-73
2023/12/24 02:48:18;;;;;;;5.63;0.68;;;9.10;99.90;;;;;;4997737;28;20128;-75
2023/12/24 02:50:44;;;;;;;0.35;0.30;;;9.10;99.90;;;;;;5010188;28;20108;-74
2023/12/24 02:53:10;;;;;;;1.92;1.05;;;9.10;99.90;;;;;;5012647;28;20045;-74
2023/12/24 02:55:36;;;;;;;10.80;0.63;;;9.10;99.90;;;;;;5016031;28;20056;-74
2023/12/24 02:58:02;;;;;;;3.97;0.65;;;9.10;99.90;;;;;;5022067;28;20060;-74
2023/12/24 03:00:28;;;;;;;3.53;0.93;;;9.10;99.90;;;;;;5020620;28;20148;-73
2023/12/24 03:02:53;;;;;;;3.85;0.80;;;9.10;99.90;;;;;;5013554;28;20151;-73
2023/12/24 03:05:19;;;;;;;4.75;0.70;;;9.10;99.90;;;;;;5008997;28;20509;-74
2023/12/24 03:07:45;;;;;;;4.03;0.40;;;9.10;99.90;;;;;;5020449;28;20042;-73
2023/12/24 03:10:10;;;;;;;6.50;0.60;;;9.10;99.90;;;;;;5018239;28;20080;-74
2023/12/24 03:12:36;;;;;;;9.18;1.02;;;9.20;99.90;;;;;;5004907;28;20049;-74
2023/12/24 03:15:02;;;;;;;3.78;0.73;;;9.20;99.90;;;;;;5026695;28;20541;-73
2023/12/24 03:17:27;;;;;;;6.75;1.02;;;9.20;99.90;;;;;;5009189;28;20784;-73
2023/12/24 03:19:53;;;;;;;1.75;1.02;;;9.20;99.90;;;;;;5010861;28;20156;-73
2023/12/24 03:22:20;;;;;;;0.63;0.63;;;9.20;99.90;;;;;;5016404;28;20059;-73
2023/12/24 03:24:45;;;;;;;7.00;0.80;;;9.20;99.90;;;;;;5024760;28;20087;-73
2023/12/24 03:27:11;;;;;;;1.77;0.43;;;9.20;99.90;;;;;;5025214;28;20048;-73
2023/12/24 03:29:37;;;;;;;7.03;1.17;;;9.20;99.90;;;;;;5017795;28;20136;-73
2023/12/24 03:32:03;;;;;;;8.88;0.68;;;9.20;99.90;;;;;;5011231;28;20049;-73
2023/12/24 03:34:29;;;;;;;5.80;1.10;;;9.30;99.90;;;;;;4995326;28;20056;-74
2023/12/24 03:36:54;;;;;;;8.23;1.00;;;9.20;99.90;;;;;;5028160;28;20115;-74
2023/12/24 03:39:20;;;;;;;3.50;0.73;;;9.30;99.90;;;;;;5025341;28;20049;-74
2023/12/24 03:41:45;;;;;;;9.48;1.30;;;9.30;99.90;;;;;;5015980;28;20048;-75
2023/12/24 03:44:11;;;;;;;11.48;1.00;;;9.30;99.90;;;;;;5015721;28;20136;-74
2023/12/24 03:46:37;;;;;;;3.85;0.32;;;9.30;99.90;;;;;;4991748;28;20442;-74
2023/12/24 03:49:02;;;;;;;0.50;0.50;;;9.30;99.90;;;;;;4990277;28;20056;-75
2023/12/24 03:51:28;;;;;;;1.55;0.55;;;9.30;99.90;;;;;;5009532;28;20116;-74
2023/12/24 03:53:54;;;;;;;7.32;0.73;;;9.30;99.90;;;;;;5005007;28;20095;-75
2023/12/24 03:56:20;;;;;;;3.60;0.38;;;9.30;99.90;;;;;;5005953;28;20137;-75
2023/12/24 03:58:46;;;;;;;7.88;0.60;;;9.40;99.90;;;;;;5020388;28;20110;-75
2023/12/24 04:01:12;;;;;;;3.85;0.82;;;9.30;99.90;;;;;;4992248;28;20041;-75
2023/12/24 04:03:40;;;;;;;12.30;0.50;;;9.30;99.90;;;;;;4994744;28;20042;-75
2023/12/24 04:06:15;;;;;;;3.03;0.47;;;9.40;99.90;;;;;;5012651;28;20045;-75
2023/12/24 04:08:41;;;;;;;0.30;0.30;;;9.40;99.90;;;;;;5014172;28;20128;-75
2023/12/24 04:11:12;;;;;;;11.30;0.85;;;9.30;99.90;;;;;;5002373;28;20064;-75
2023/12/24 04:13:38;;;;;;;8.93;0.55;;;9.30;99.90;;;;;;5010889;28;20052;-75
2023/12/24 04:16:04;;;;;;;6.60;0.43;;;9.30;99.90;;;;;;4993719;28;20084;-74
2023/12/24 04:18:30;;;;;;;2.50;0.55;;;9.30;99.90;;;;;;5021332;28;20041;-75
2023/12/24 04:20:55;;;;;;;5.70;0.35;;;9.30;99.90;;;;;;4998543;28;20040;-75
2023/12/24 04:23:21;;;;;;;0.60;0.45;;;9.40;99.90;;;;;;5004748;28;20416;-75
2023/12/24 04:25:47;;;;;;;5.43;0.55;;;9.40;99.90;;;;;;5018307;28;20157;-75
2023/12/24 04:28:12;;;;;;;2.03;0.50;;;9.40;99.90;;;;;;5002957;28;20450;-75
2023/12/24 04:30:38;;;;;;;11.30;0.40;;;9.40;99.90;;;;;;5015930;28;20495;-75
2023/12/24 04:33:04;;;;;;;7.05;0.28;;;9.30;99.90;;;;;;4995441;28;20041;-75
2023/12/24 04:35:29;;;;;;;0.80;0.20;;;9.40;99.90;;;;;;4992818;28;20056;-75
2023/12/24 04:37:55;;;;;;;8.40;0.50;;;9.40;99.90;;;;;;5011364;28;20048;-75
2023/12/24 04:40:21;;;;;;;0.20;0.20;;;9.50;99.90;;;;;;5018742;28;20049;-75
2023/12/24 04:42:47;;;;;;;8.77;0.40;;;9.50;99.90;;;;;;4999755;28;20048;-75
2023/12/24 04:45:13;;;;;;;0.68;0.20;;;9.50;99.90;;;;;;5015688;28;20663;-74
2023/12/24 04:47:39;;;;;;;0.80;0.30;;;9.40;99.90;;;;;;5019288;28;20376;-74
2023/12/24 04:50:06;;;;;;;0.80;0.15;;;9.40;99.90;;;;;;5024038;28;20060;-74
2023/12/24 04:52:35;;;;;;;3.53;0.32;;;9.40;99.90;;;;;;5019377;28;20044;-74
2023/12/24 04:55:05;;;;;;;3.53;0.10;;;9.40;99.90;;;;;;5007709;28;20057;-74
2023/12/24 04:57:31;;;;;;;0.38;0.20;;;9.50;99.90;;;;;;5022825;28;20051;-74
2023/12/24 04:59:57;;;;;;;2.63;0.20;;;9.50;99.90;;;;;;5023065;28;20049;-74
2023/12/24 05:02:23;;;;;;;1.13;0.30;;;9.50;99.90;;;;;;5020066;28;20087;-73
2023/12/24 05:04:49;;;;;;;0.57;0.30;;;9.40;99.90;;;;;;5010414;28;20124;-73
2023/12/24 05:07:15;;;;;;;0.50;0.15;;;9.50;99.90;;;;;;5008125;28;20561;-73
2023/12/24 05:09:42;;;;;;;3.55;0.20;;;9.50;99.90;;;;;;5014810;28;20053;-73
2023/12/24 05:12:10;;;;;;;0.70;0.10;;;9.50;99.90;;;;;;5037323;28;20051;-73
2023/12/24 05:14:36;;;;;;;0.85;0.22;;;9.50;99.90;;;;;;5006592;28;20053;-73
2023/12/24 05:17:02;;;;;;;10.13;0.30;;;9.50;99.90;;;;;;5012142;28;20049;-73
2023/12/24 05:19:28;;;;;;;1.65;0.17;;;9.60;99.90;;;;;;5009262;28;20041;-73
2023/12/24 05:21:54;;;;;;;3.90;0.20;;;9.50;99.90;;;;;;5019585;28;20048;-74
2023/12/24 05:24:20;;;;;;;1.38;0.40;;;9.50;99.90;;;;;;4990850;28;20519;-73
2023/12/24 05:26:46;;;;;;;3.75;0.13;;;9.50;99.90;;;;;;5008936;28;20152;-73
2023/12/24 05:29:12;;;;;;;0.65;0.13;;;9.60;99.90;;;;;;5016280;28;20055;-74
2023/12/24 05:31:41;;;;;;;0.00;0.00;;;9.60;99.90;;;;;;5022903;28;20049;-73
2023/12/24 05:34:08;;;;;;;0.38;0.30;;;9.60;99.90;;;;;;4999268;28;20055;-73
2023/12/24 05:36:35;;;;;;;2.17;0.47;;;9.60;99.90;;;;;;5005653;28;20051;-74
2023/12/24 05:39:01;;;;;;;0.03;0.00;;;9.60;99.90;;;;;;5004207;28;20055;-73
2023/12/24 05:41:28;;;;;;;2.83;0.00;;;9.60;99.90;;;;;;5006273;28;20055;-73
2023/12/24 05:43:53;;;;;;;0.68;0.20;;;9.60;99.90;;;;;;5037660;28;20095;-74
2023/12/24 05:46:20;;;;;;;5.72;0.20;;;9.70;99.90;;;;;;5005797;28;20040;-74
2023/12/24 05:48:46;;;;;;;2.03;0.45;;;9.70;99.90;;;;;;5004483;28;20049;-74
2023/12/24 05:51:12;;;;;;;0.57;0.25;;;9.70;99.90;;;;;;5004978;28;20576;-74
2023/12/24 05:53:37;;;;;;;0.00;0.00;;;9.70;99.90;;;;;;5019451;28;20049;-74
2023/12/24 05:56:03;;;;;;;0.73;0.20;;;9.70;99.90;;;;;;5024672;28;20040;-73
2023/12/24 05:58:29;;;;;;;1.65;0.15;;;9.80;99.90;;;;;;5023219;28;20124;-74
2023/12/24 06:00:55;;;;;;;1.23;0.10;;;9.70;99.90;;;;;;5022913;28;20044;-73
2023/12/24 06:03:21;;;;;;;0.10;0.10;;;9.80;99.90;;;;;;5001197;28;21350;-74
2023/12/24 06:05:47;;;;;;;0.00;0.00;;;9.70;99.90;;;;;;5001466;28;20392;-74
2023/12/24 06:08:16;;;;;;;2.67;0.25;;;9.80;99.90;;;;;;5039609;28;20045;-73
2023/12/24 06:10:47;;;;;;;2.60;0.60;;;9.80;99.90;;;;;;5024061;28;20095;-74
2023/12/24 06:13:13;;;;;;;0.38;0.22;;;9.80;99.90;;;;;;4991593;28;20129;-74
2023/12/24 06:15:39;;;;;;;6.55;0.50;;;9.80;99.90;;;;;;5035535;28;20793;-74
2023/12/24 06:18:05;;;;;;;3.05;0.17;;;9.80;99.90;;;;;;5013911;28;20029;-74
2023/12/24 06:20:36;;;;;;;0.10;0.10;;;9.80;99.90;;;;;;5026103;28;20110;-74
2023/12/24 06:23:02;;;;;;;0.35;0.35;;;9.90;99.90;;;;;;4991893;28;20042;-74
2023/12/24 06:25:28;;;;;;;7.85;1.00;;;9.90;99.90;;;;;;5013005;28;20135;-74
2023/12/24 06:27:54;;;;;;;3.75;0.50;;;9.80;99.90;;;;;;5006467;28;20445;-74
2023/12/24 06:30:22;;;;;;;0.30;0.22;;;9.90;99.90;;;;;;5017151;28;20563;-74
2023/12/24 06:32:48;;;;;;;2.92;0.40;;;9.90;99.90;;;;;;5010685;28;20037;-75
2023/12/24 06:35:14;;;;;;;2.13;0.35;;;10.00;99.90;;;;;;5010251;28;20099;-74
2023/12/24 06:37:40;;;;;;;4.53;0.60;;;10.00;99.90;;;;;;5012201;28;20049;-74
2023/12/24 06:40:06;;;;;;;6.07;1.42;;;10.00;99.90;;;;;;5006314;28;20047;-74
2023/12/24 06:42:32;;;;;;;0.77;0.40;;;10.00;99.90;;;;;;5011350;28;20081;-73
2023/12/24 06:44:58;;;;;;;6.03;1.05;;;10.00;99.90;;;;;;5009229;28;20037;-74
2023/12/24 06:47:24;;;;;;;7.43;0.60;;;9.90;99.90;;;;;;5019436;28;20045;-74
2023/12/24 06:49:51;;;;;;;1.08;0.40;;;10.00;99.90;;;;;;5007798;28;20049;-74
2023/12/24 06:52:17;;;;;;;1.75;0.57;;;10.00;99.90;;;;;;5015950;28;20060;-73
2023/12/24 06:54:42;;;;;;;4.13;0.80;;;10.00;99.90;;;;;;5026092;28;20053;-74
2023/12/24 06:57:08;;;;;;;3.63;0.57;;;10.00;99.90;;;;;;5023384;28;20051;-74
2023/12/24 06:59:34;;;;;;;1.08;0.30;;;10.00;99.90;;;;;;5025795;28;20572;-74
2023/12/24 07:02:00;;;;;;;1.25;0.30;;;10.00;99.90;;;;;;5023846;28;20068;-74
2023/12/24 07:04:26;;;;;;;0.55;0.45;;;10.00;99.90;;;;;;5010141;28;20131;-75
2023/12/24 07:06:51;;;;;;;11.05;1.27;;;10.00;99.90;;;;;;5020071;28;20471;-74
2023/12/24 07:09:17;;;;;;;0.10;0.10;;;10.10;99.90;;;;;;5018304;28;20130;-74
2023/12/24 07:11:43;;;;;;;7.57;0.85;;;10.10;99.90;;;;;;5003781;28;20045;-74
2023/12/24 07:14:09;;;;;;;4.95;0.73;;;10.00;99.90;;;;;;5016183;28;20068;-74
2023/12/24 07:16:35;;;;;;;0.55;0.38;;;10.10;99.90;;;;;;5011288;28;20049;-74
2023/12/24 07:19:05;;;;;;;2.67;0.40;;;10.10;99.90;;;;;;5008736;28;20122;-74
2023/12/24 07:21:31;;;;;;;2.35;0.60;;;10.10;99.90;;;;;;5014419;28;20068;-75
2023/12/24 07:23:57;;;;;;;2.28;0.55;;;10.10;99.90;;;;;;4993412;28;20049;-74
2023/12/24 07:26:22;;;;;;;1.58;0.77;;;10.10;99.90;;;;;;5013946;28;20129;-74
2023/12/24 07:28:48;;;;;;;1.02;0.47;;;10.10;99.90;;;;;;5018754;28;20044;-74
2023/12/24 07:31:14;;;;;;;2.33;1.10;;;10.20;99.90;;;;;;5010097;28;20042;-74
2023/12/24 07:33:40;;;;;;;2.83;0.40;;;10.20;99.90;;;;;;4985559;28;20098;-74
2023/12/24 07:36:06;;;;;;;1.63;0.75;;;10.20;99.90;;;;;;5014582;28;20119;-74
2023/12/24 07:38:32;;;;;;;1.45;0.60;;;10.20;99.90;;;;;;5014174;28;20077;-74
2023/12/24 07:40:58;;;;;;;8.57;1.23;;;10.30;99.90;;;;;;5014013;28;20133;-74
2023/12/24 07:43:24;;;;;;;1.98;0.47;;;10.30;99.90;;;;;;5009008;28;20047;-74
2023/12/24 07:45:50;;;;;;;7.68;0.98;;;10.30;99.90;;;;;;5016962;28;20055;-73
2023/12/24 07:48:16;;;;;;;5.32;0.57;;;10.30;99.90;;;;;;5019746;28;20042;-73
2023/12/24 07:50:42;;;;;;;2.75;0.52;;;10.40;99.90;;;;;;4995173;28;20583;-73
2023/12/24 07:53:08;;;;;;;1.85;0.55;;;10.30;99.90;;;;;;5002724;28;20054;-73
2023/12/24 07:55:33;;;;;;;1.77;0.65;;;10.30;99.90;;;;;;5011240;28;20049;-72
2023/12/24 07:57:59;;;;;;;4.18;1.30;;;10.30;99.90;;;;;;5022450;28;20049;-72
2023/12/24 08:00:34;;;;;;;3.88;0.50;;;10.40;99.90;;;;;;5040317;28;20361;-73
2023/12/24 08:03:00;;;;;;;5.40;1.20;;;10.40;99.90;;;;;;5028904;28;20041;-73
2023/12/24 08:05:26;;;;;;;8.70;1.08;;;10.40;99.90;;;;;;5030074;28;20534;-73
2023/12/24 08:07:52;;;;;;;6.65;0.57;;;10.40;99.90;;;;;;5027503;28;20056;-72
2023/12/24 08:10:17;;;;;;;3.60;0.60;;;10.40;99.90;;;;;;5009795;28;20048;-73
2023/12/24 08:12:43;;;;;;;5.18;1.23;;;10.40;99.90;;;;;;5041447;28;20587;-73
2023/12/24 08:15:09;;;;;;;6.65;1.00;;;10.40;99.90;;;;;;4994581;28;20063;-73
2023/12/24 08:17:34;;;;;;;5.10;1.27;;;10.50;99.90;;;;;;5024257;28;20045;-72
2023/12/24 08:20:00;;;;;;;8.80;1.08;;;10.50;99.90;;;;;;5023908;28;20488;-72
2023/12/24 08:22:26;;;;;;;5.65;0.82;;;10.40;99.90;;;;;;5023898;28;20049;-72
2023/12/24 08:24:52;;;;;;;1.23;0.60;;;10.40;99.90;;;;;;5024337;28;20543;-72
2023/12/24 08:27:17;;;;;;;11.38;2.17;;;10.40;99.90;;;;;;5008433;28;20483;-72
2023/12/24 08:29:43;;;;;;;5.07;0.63;;;10.40;99.90;;;;;;5006489;28;20083;-72
2023/12/24 08:32:09;;;;;;;5.53;1.42;;;10.40;99.90;;;;;;5010966;28;20036;-71
2023/12/24 08:34:35;;;;;;;7.15;1.80;;;10.50;99.90;;;;;;5023004;28;20044;-72
2023/12/24 08:37:01;;;;;;;10.23;1.83;;;10.50;99.90;;;;;;5028198;28;20036;-71
2023/12/24 08:39:26;;;;;;;0.85;0.38;;;10.50;99.90;;;;;;5029958;28;20060;-72
2023/12/24 08:41:52;;;;;;;0.88;0.38;;;10.50;99.90;;;;;;4994884;28;20083;-72
2023/12/24 08:44:18;;;;;;;6.25;0.35;;;10.50;99.90;;;;;;5024480;28;20555;-72
2023/12/24 08:46:47;;;;;;;9.05;1.52;;;10.50;99.90;;;;;;4993889;28;20043;-72
2023/12/24 08:49:15;;;;;;;6.78;1.70;;;10.50;99.90;;;;;;5033235;28;20179;-71
2023/12/24 08:51:41;;;;;;;5.82;0.95;;;10.50;99.90;;;;;;5022818;28;20033;-72
2023/12/24 08:54:07;;;;;;;0.50;0.50;;;10.50;99.90;;;;;;5007999;28;20048;-72
2023/12/24 08:56:34;;;;;;;12.50;1.40;;;10.50;99.90;;;;;;5006691;28;20162;-72
2023/12/24 08:59:00;;;;;;;9.75;1.40;;;10.60;99.90;;;;;;5008811;28;20261;-72
2023/12/24 09:01:25;;;;;;;7.35;0.90;;;10.50;99.90;;;;;;5004780;28;20049;-72
2023/12/24 09:03:51;;;;;;;6.70;0.85;;;10.60;99.90;;;;;;5024941;28;20060;-73
2023/12/24 09:06:17;;;;;;;3.47;0.73;;;10.50;99.90;;;;;;5039292;28;20515;-72
2023/12/24 09:08:43;;;;;;;3.65;1.05;;;10.50;99.90;;;;;;5023854;28;20052;-72
2023/12/24 09:11:08;;;;;;;0.28;0.20;;;10.60;99.90;;;;;;5022359;28;20494;-72
2023/12/24 09:13:34;;;;;;;5.82;0.52;;;10.60;99.90;;;;;;5022992;28;20135;-72
2023/12/24 09:16:00;;;;;;;14.30;1.58;;;10.60;99.90;;;;;;4976409;28;20049;-73
2023/12/24 09:18:25;;;;;;;5.90;0.98;;;10.70;99.90;;;;;;5023629;28;20140;-72
2023/12/24 09:20:51;;;;;;;6.28;0.65;;;10.60;99.90;;;;;;5024306;28;20346;-74
2023/12/24 09:23:17;;;;;;;9.50;1.38;;;10.60;99.90;;;;;;5025086;28;20510;-72
2023/12/24 09:25:43;;;;;;;10.90;1.02;;;10.70;99.90;;;;;;5023049;28;20521;-73
2023/12/24 09:28:09;;;;;;;6.30;1.05;;;10.70;99.90;;;;;;5021976;28;20077;-73
2023/12/24 09:30:35;;;;;;;9.07;1.10;;;10.80;99.90;;;;;;5005804;28;20133;-73
2023/12/24 09:33:01;;;;;;;6.88;1.00;;;10.70;99.90;;;;;;5021123;28;20460;-73
2023/12/24 09:35:27;;;;;;;9.98;1.85;;;10.70;99.90;;;;;;5023139;28;20064;-73
2023/12/24 09:37:53;;;;;;;5.10;1.08;;;10.80;99.90;;;;;;5021845;28;20044;-73
2023/12/24 09:40:18;;;;;;;6.63;0.63;;;10.80;99.90;;;;;;5023386;28;20048;-73
2023/12/24 09:42:44;;;;;;;5.90;1.40;;;10.80;99.90;;;;;;5025194;28;20049;-73
2023/12/24 09:45:10;;;;;;;8.15;1.38;;;10.80;99.90;;;;;;5010971;28;20587;-72
2023/12/24 09:47:36;;;;;;;4.72;0.82;;;10.80;99.90;;;;;;5026957;28;20785;-73
2023/12/24 09:50:03;;;;;;;9.27;1.58;;;10.90;99.90;;;;;;5013487;28;20166;-72
2023/12/24 09:52:29;;;;;;;6.43;1.02;;;10.90;99.90;;;;;;5029496;28;20049;-72
2023/12/24 09:54:55;;;;;;;6.40;1.50;;;10.90;99.90;;;;;;5031493;28;20175;-72
2023/12/24 09:57:21;;;;;;;6.18;1.65;;;11.00;99.90;;;;;;4992455;28;20038;-72
2023/12/24 09:59:47;;;;;;;8.75;1.50;;;10.90;99.90;;;;;;5011675;28;20052;-72
2023/12/24 10:02:13;;;;;;;8.35;1.70;;;10.90;99.90;;;;;;5026717;28;20045;-72
2023/12/24 10:04:39;;;;;;;8.50;1.30;;;10.90;99.90;;;;;;5025852;28;20498;-73
2023/12/24 10:07:06;;;;;;;6.47;1.25;;;11.00;99.90;;;;;;5025818;28;20048;-73
2023/12/24 10:09:44;;;;;;;6.07;1.00;;;11.00;99.90;;;;;;5011471;28;20053;-73
2023/12/24 10:12:11;;;;;;;7.18;1.35;;;11.00;99.90;;;;;;5021984;28;20048;-73
2023/12/24 10:14:38;;;;;;;8.68;1.27;;;11.00;99.90;;;;;;5003777;28;20079;-73
2023/12/24 10:17:05;;;;;;;9.60;1.13;;;11.10;99.90;;;;;;5022306;28;20059;-74
2023/12/24 10:19:31;;;;;;;6.30;1.35;;;11.10;99.90;;;;;;5028890;28;20044;-73
2023/12/24 10:22:08;;;;;;;14.32;1.30;;;11.10;99.90;;;;;;5020591;28;20056;-73
2023/12/24 10:24:40;;;;;;;4.45;1.08;;;11.00;99.90;;;;;;5025771;28;20051;-74
2023/12/24 10:27:07;;;;;;;10.70;1.38;;;11.00;99.90;;;;;;5009876;28;20051;-74
2023/12/24 10:29:35;;;;;;;6.22;0.80;;;11.10;99.90;;;;;;5026000;28;20059;-74
2023/12/24 10:32:01;;;;;;;4.75;0.85;;;11.10;99.90;;;;;;5032963;28;20037;-74
2023/12/24 10:34:27;;;;;;;8.40;1.73;;;11.10;99.90;;;;;;5028113;28;20049;-73
2023/12/24 10:36:53;;;;;;;4.53;0.70;;;11.10;99.90;;;;;;5029897;28;20056;-74
2023/12/24 10:39:24;;;;;;;9.55;1.60;;;11.10;99.90;;;;;;5013477;28;20049;-74
2023/12/24 10:41:51;;;;;;;9.15;1.50;;;11.20;99.90;;;;;;5014497;28;20037;-73
2023/12/24 10:44:17;;;;;;;14.90;1.60;;;11.10;99.90;;;;;;5017918;28;20041;-73
2023/12/24 10:46:43;;;;;;;13.40;1.48;;;11.10;99.90;;;;;;5015701;28;20303;-73
2023/12/24 10:49:10;;;;;;;15.50;1.67;;;11.10;99.90;;;;;;4990507;28;20046;-73
2023/12/24 10:51:39;;;;;;;8.32;1.27;;;11.10;99.90;;;;;;5022839;28;20057;-73
2023/12/24 10:54:08;;;;;;;6.65;1.13;;;11.10;99.90;;;;;;5008957;28;20045;-73
2023/12/24 10:56:52;;;;;;;6.45;2.00;;;11.20;99.90;;;;;;5023660;28;20479;-73
2023/12/24 10:59:47;;;;;;;13.52;1.33;;;11.10;99.90;;;;;;5025347;28;20060;-73
2023/12/24 11:02:13;;;;;;;2.63;0.43;;;11.20;99.90;;;;;;4996870;28;20061;-74
2023/12/24 11:04:48;;;;;;;8.77;1.35;;;11.20;99.90;;;;;;5012499;28;20045;-74
2023/12/24 11:07:32;;;;;;;9.52;1.08;;;11.30;99.90;;;;;;5023440;28;20052;-74
2023/12/24 11:10:02;;;;;;;12.10;1.60;;;11.20;99.90;;;;;;5024011;28;20087;-74
2023/12/24 11:12:34;;;;;;;8.55;1.48;;;11.30;99.90;;;;;;5022483;28;20090;-74
2023/12/24 11:15:01;;;;;;;6.47;1.23;;;11.30;99.90;;;;;;5023834;28;20061;-74
2023/12/24 11:17:37;;;;;;;7.10;1.27;;;11.30;99.90;;;;;;5031894;28;20053;-74
2023/12/24 11:20:26;;;;;;;11.65;1.27;;;11.40;99.90;;;;;;5041882;28;20057;-74
2023/12/24 11:23:04;;;;;;;8.13;1.38;;;11.40;99.90;;;;;;5033229;28;20273;-74
2023/12/24 11:25:36;;;;;;;8.35;1.10;;;11.40;99.90;;;;;;5031974;28;20514;-74
2023/12/24 11:28:03;;;;;;;10.35;1.13;;;11.50;99.90;;;;;;5014061;28;20075;-74
2023/12/24 11:30:29;;;;;;;8.73;0.82;;;11.50;99.90;;;;;;5029509;28;20079;-74
2023/12/24 11:32:55;;;;;;;12.40;1.45;;;11.50;99.90;;;;;;5030525;28;20053;-74
2023/12/24 11:35:52;;;;;;;3.75;1.30;;;11.50;99.90;;;;;;5024527;28;20051;-74
2023/12/24 11:38:36;;;;;;;6.53;0.80;;;11.50;99.90;;;;;;5007105;28;20045;-74
2023/12/24 11:41:19;;;;;;;8.52;0.93;;;11.50;99.90;;;;;;5024337;28;20111;-74
2023/12/24 11:43:59;;;;;;;2.53;0.50;;;11.60;99.90;;;;;;5004620;28;20644;-74
2023/12/24 11:46:26;;;;;;;3.10;0.68;;;11.60;99.90;;;;;;5021121;28;20079;-75
2023/12/24 11:49:01;;;;;;;9.52;1.42;;;11.60;99.90;;;;;;5007333;28;20104;-74
2023/12/24 11:51:26;;;;;;;10.27;1.25;;;11.60;99.90;;;;;;5024404;28;20072;-75
2023/12/24 11:54:03;;;;;;;3.60;1.00;;;11.60;99.90;;;;;;5017612;28;20152;-74
2023/12/24 11:56:30;;;;;;;5.50;1.00;;;11.60;99.90;;;;;;5019685;28;20053;-74
2023/12/24 11:58:58;;;;;;;4.60;1.20;;;11.60;99.90;;;;;;5024136;28;20045;-74
2023/12/24 12:01:26;;;;;;;0.00;0.00;;;11.60;99.90;;;;;;4992274;28;20503;-74
2023/12/24 12:03:57;;;;;;;5.75;0.90;;;11.70;99.90;;;;;;5023229;28;20390;-74
2023/12/24 12:06:27;;;;;;;6.80;1.00;;;11.70;99.90;;;;;;5024399;28;20519;-74
2023/12/24 12:08:53;;;;;;;16.80;1.85;;;11.70;99.90;;;;;;5028651;28;20055;-75
2023/12/24 12:11:19;;;;;;;7.93;1.15;;;11.70;99.90;;;;;;5025472;28;20045;-74
2023/12/24 12:13:45;;;;;;;6.20;0.63;;;11.70;99.90;;;;;;5023478;28;20402;-76
2023/12/24 12:16:11;;;;;;;3.33;0.57;;;11.70;99.90;;;;;;5024269;28;20049;-75
2023/12/24 12:18:37;;;;;;;3.70;0.95;;;11.70;99.90;;;;;;5007007;28;20451;-75
2023/12/24 12:21:03;;;;;;;8.13;1.15;;;11.70;99.90;;;;;;5033894;28;20056;-75
2023/12/24 12:23:28;;;;;;;5.07;1.38;;;11.70;99.90;;;;;;5006757;28;20068;-75
2023/12/24 12:25:54;;;;;;;5.00;1.10;;;11.70;99.90;;;;;;5023880;28;20574;-75
2023/12/24 12:28:20;;;;;;;8.27;1.27;;;11.80;99.90;;;;;;4988522;28;20132;-74
2023/12/24 12:30:46;;;;;;;2.30;0.65;;;11.80;99.90;;;;;;5004974;28;20506;-74
2023/12/24 12:33:12;;;;;;;5.10;1.23;;;11.70;99.90;;;;;;5007845;28;20048;-74
2023/12/24 12:35:38;;;;;;;5.70;1.05;;;11.70;99.90;;;;;;5009829;28;20710;-74
2023/12/24 12:38:09;;;;;;;9.27;0.98;;;11.70;99.90;;;;;;4996039;28;20104;-74
2023/12/24 12:40:36;;;;;;;0.30;0.20;;;11.70;99.90;;;;;;5012010;28;20044;-74
2023/12/24 12:43:02;;;;;;;12.15;1.27;;;11.80;99.90;;;;;;5041035;28;20520;-74
2023/12/24 12:45:28;;;;;;;10.38;1.17;;;11.80;99.90;;;;;;5021713;28;20049;-74
2023/12/24 12:47:53;;;;;;;5.32;1.10;;;11.80;99.90;;;;;;5022526;28;20044;-74
2023/12/24 12:50:20;;;;;;;6.35;1.20;;;11.80;99.90;;;;;;4989868;28;20044;-74